Concerto — JJ3855 — position and weather

sailwx.info

Track history (hours):
 
Tides and Currents Weather Stations Pressure Air Temp Water Temp Dewpoint Dewpoint Depression Visibility Wind Speed Wind Dir Waves Ship Positions

Concerto

Last reported at 2018-Feb-20 13:59 UTC. Time now 2018-Feb-20 14:01 UTC.
Position N 34°41' E 135°11'.

Length 74 m; draft 3 m.

Type: Passenger vessel. MMSI: 431000448.

Date/timePositionNaut miles runAvg speedWind from/ knotsBaromVisibWave heightAir tempDewpointWater temp
2018-Feb-20 13:59N 34°41' E 135°11'0 0.0
2018-Feb-20 13:29N 34°41' E 135°11'0 0.0
2018-Feb-20 12:59N 34°41' E 135°11'0 0.0
2018-Feb-20 12:29N 34°41' E 135°11'3 5.8
2018-Feb-20 12:00N 34°38' E 135°11'4 8.4
2018-Feb-20 11:31N 34°36' E 135°06'3 6.9
2018-Feb-20 11:00N 34°38' E 135°10'3 6.1
2018-Feb-20 10:30N 34°41' E 135°11'0 0.0
2018-Feb-20 10:00N 34°41' E 135°11'2 3.9
2018-Feb-20 09:30N 34°39' E 135°11'4 7.5
2018-Feb-20 09:01N 34°37' E 135°07'4 8.1
2018-Feb-20 08:30N 34°40' E 135°11'1 2.5
2018-Feb-20 07:59N 34°41' E 135°11'0 0.0
2018-Feb-20 07:29N 34°41' E 135°11'0 0.0
2018-Feb-20 06:59N 34°41' E 135°11'2 3.8
2018-Feb-20 06:30N 34°39' E 135°11'1 2.6
2018-Feb-20 06:00N 34°38' E 135°10'3 5.7
2018-Feb-20 05:30N 34°41' E 135°11'0 0.0
2018-Feb-20 04:58N 34°41' E 135°11'2 4.6
2018-Feb-20 04:30N 34°39' E 135°11'4 7.9
2018-Feb-20 04:00N 34°37' E 135°07'3 5.7
2018-Feb-20 03:30N 34°38' E 135°10'3 5.7
2018-Feb-20 03:00N 34°41' E 135°11'0 0.0
2018-Feb-20 02:30N 34°41' E 135°11'0 0.0
2018-Feb-20 02:00N 34°41' E 135°11'0 0.0
2018-Feb-20 01:30N 34°41' E 135°11'0 0.0
2018-Feb-20 01:00N 34°41' E 135°11'0 0.0
2018-Feb-20 00:30N 34°41' E 135°11'0 0.0
2018-Feb-20 00:00N 34°41' E 135°11'0 0.0
2018-Feb-19 23:30N 34°41' E 135°11'0 0.0
2018-Feb-19 23:00N 34°41' E 135°11'0 0.0
2018-Feb-19 22:30N 34°41' E 135°11'0 0.0
2018-Feb-19 22:00N 34°41' E 135°11'0 0.0
2018-Feb-19 21:24N 34°41' E 135°11'0 0.0
2018-Feb-19 21:00N 34°41' E 135°11'0 0.0
2018-Feb-19 20:29N 34°41' E 135°11'0 0.0
2018-Feb-19 20:00N 34°41' E 135°11'0 0.0
2018-Feb-19 19:30N 34°41' E 135°11'0 0.0
2018-Feb-19 19:00N 34°41' E 135°11'0 0.0
2018-Feb-19 18:30N 34°41' E 135°11'0 0.0
2018-Feb-19 18:00N 34°41' E 135°11'0 0.0
2018-Feb-19 17:30N 34°41' E 135°11'0 0.0
2018-Feb-19 17:00N 34°41' E 135°11'0 0.0
2018-Feb-19 16:30N 34°41' E 135°11'0 0.0
2018-Feb-19 16:00N 34°41' E 135°11'0 0.0
2018-Feb-19 15:30N 34°41' E 135°11'0 0.0
2018-Feb-19 14:59N 34°41' E 135°11'0 0.0
2018-Feb-19 14:30N 34°41' E 135°11'0 0.0
2018-Feb-19 14:00N 34°41' E 135°11'0 0.0
2018-Feb-19 13:30N 34°41' E 135°11'0 0.0
2018-Feb-19 13:00N 34°41' E 135°11'0 0.0
2018-Feb-19 12:30N 34°41' E 135°11'2 5.0
2018-Feb-19 12:01N 34°38' E 135°11'4 8.7
2018-Feb-19 11:30N 34°37' E 135°06'3 6.7
2018-Feb-19 11:00N 34°38' E 135°10'3 6.4
2018-Feb-19 10:29N 34°41' E 135°11'0 0.0
2018-Feb-19 09:59N 34°41' E 135°11'3 5.4
2018-Feb-19 09:30N 34°38' E 135°11'3 6.5
2018-Feb-19 09:00N 34°37' E 135°07'4 8.2
2018-Feb-19 08:31N 34°40' E 135°11'1 2.4
2018-Feb-19 07:58N 34°41' E 135°11'0 0.0
2018-Feb-19 07:28N 34°41' E 135°11'0 0.0
2018-Feb-19 06:58N 34°41' E 135°11'2 4.2
2018-Feb-19 06:30N 34°39' E 135°11'2 3.7
2018-Feb-19 06:00N 34°38' E 135°09'3 6.5
2018-Feb-19 05:30N 34°41' E 135°11'0 0.0
2018-Feb-19 04:58N 34°41' E 135°11'2 4.2
2018-Feb-19 04:31N 34°39' E 135°11'3 6.7
2018-Feb-19 04:01N 34°37' E 135°08'2 4.4
2018-Feb-19 03:31N 34°38' E 135°10'3 5.2
2018-Feb-19 03:00N 34°41' E 135°11'0 0.0
2018-Feb-19 02:29N 34°41' E 135°11'0 0.0
2018-Feb-19 01:59N 34°41' E 135°11'0 0.0
2018-Feb-19 01:29N 34°41' E 135°11'0 0.0
2018-Feb-19 00:59N 34°41' E 135°11'0 0.0
2018-Feb-19 00:29N 34°41' E 135°11'0 0.0
2018-Feb-18 23:59N 34°41' E 135°11'0 0.0
2018-Feb-18 23:26N 34°41' E 135°11'0 0.0
2018-Feb-18 22:59N 34°41' E 135°11'0 0.0
2018-Feb-18 22:29N 34°41' E 135°11'0 0.0
2018-Feb-18 21:59N 34°41' E 135°11'0 0.0
2018-Feb-18 21:29N 34°41' E 135°11'0 0.0
2018-Feb-18 20:59N 34°41' E 135°11'0 0.0
2018-Feb-18 20:29N 34°41' E 135°11'0 0.0
2018-Feb-18 19:59N 34°41' E 135°11'0 0.0
2018-Feb-18 19:29N 34°41' E 135°11'0 0.0
2018-Feb-18 18:59N 34°41' E 135°11'0 0.0
2018-Feb-18 18:29N 34°41' E 135°11'0 0.0
2018-Feb-18 17:59N 34°41' E 135°11'0 0.0
2018-Feb-18 17:29N 34°41' E 135°11'0 0.0
2018-Feb-18 16:59N 34°41' E 135°11'0 0.0
2018-Feb-18 16:29N 34°41' E 135°11'0 0.0
2018-Feb-18 15:59N 34°41' E 135°11'0 0.0
2018-Feb-18 15:29N 34°41' E 135°11'0 0.0
2018-Feb-18 14:59N 34°41' E 135°11'0 0.0
2018-Feb-18 14:29N 34°41' E 135°11'0 0.0
2018-Feb-18 13:59N 34°41' E 135°11'0 0.0
2018-Feb-18 13:29N 34°41' E 135°11'0 0.0
2018-Feb-18 12:59N 34°41' E 135°11'0 0.0
2018-Feb-18 12:26N 34°41' E 135°11'2 5.4
2018-Feb-18 12:00N 34°38' E 135°11'4 8.2
2018-Feb-18 11:31N 34°37' E 135°06'3 5.9
2018-Feb-18 11:00N 34°38' E 135°10'3 6.5
2018-Feb-18 10:30N 34°41' E 135°11'0 0.0
2018-Feb-18 10:00N 34°41' E 135°11'3 5.1
2018-Feb-18 09:30N 34°38' E 135°11'3 5.9
2018-Feb-18 09:00N 34°37' E 135°08'4 7.8
2018-Feb-18 08:31N 34°39' E 135°11'1 2.4
2018-Feb-18 07:58N 34°41' E 135°11'0 0.0
2018-Feb-18 07:28N 34°41' E 135°11'0 0.0
2018-Feb-18 06:58N 34°41' E 135°11'1 2.9
2018-Feb-18 06:30N 34°40' E 135°12'2 4.6
2018-Feb-18 06:01N 34°38' E 135°10'3 6.1
2018-Feb-18 05:30N 34°41' E 135°11'0 0.0
2018-Feb-18 04:59N 34°41' E 135°11'2 4.5
2018-Feb-18 04:31N 34°39' E 135°11'4 8.5
2018-Feb-18 04:00N 34°37' E 135°07'3 5.2
2018-Feb-18 03:30N 34°38' E 135°09'3 6.3
2018-Feb-18 03:00N 34°41' E 135°11'0 0.0
2018-Feb-18 02:28N 34°41' E 135°11'0 0.0
2018-Feb-18 01:58N 34°41' E 135°11'0 0.0
2018-Feb-18 01:28N 34°41' E 135°11'0 0.0
2018-Feb-18 00:58N 34°41' E 135°11'0 0.0
2018-Feb-18 00:28N 34°41' E 135°11'0 0.0
2018-Feb-17 23:58N 34°41' E 135°11'0 0.0
2018-Feb-17 23:28N 34°41' E 135°11'0 0.0
2018-Feb-17 22:58N 34°41' E 135°11'0 0.0
2018-Feb-17 22:28N 34°41' E 135°11'0 0.0
2018-Feb-17 21:58N 34°41' E 135°11'0 0.0
2018-Feb-17 21:28N 34°41' E 135°11'0 0.0
2018-Feb-17 20:58N 34°41' E 135°11'0 0.0
2018-Feb-17 20:28N 34°41' E 135°11'0 0.0
2018-Feb-17 19:58N 34°41' E 135°11'0 0.0
2018-Feb-17 19:28N 34°41' E 135°11'0 0.0
2018-Feb-17 18:58N 34°41' E 135°11'0 0.0
2018-Feb-17 18:28N 34°41' E 135°11'0 0.0
2018-Feb-17 17:58N 34°41' E 135°11'0 0.0
2018-Feb-17 17:28N 34°41' E 135°11'0 0.0
2018-Feb-17 16:58N 34°41' E 135°11'0 0.0
2018-Feb-17 16:28N 34°41' E 135°11'0 0.0
2018-Feb-17 15:58N 34°41' E 135°11'0 0.0
2018-Feb-17 15:28N 34°41' E 135°11'0 0.0
2018-Feb-17 14:58N 34°41' E 135°11'0 0.0
2018-Feb-17 14:28N 34°41' E 135°11'0 0.0
2018-Feb-17 13:58N 34°41' E 135°11'0 0.0
2018-Feb-17 13:28N 34°41' E 135°11'0 0.0
2018-Feb-17 12:58N 34°41' E 135°11'0 0.0
2018-Feb-17 12:28N 34°41' E 135°11'2 4.8
2018-Feb-17 12:00N 34°39' E 135°11'4 8.5
2018-Feb-17 11:30N 34°37' E 135°06'3 6.9
2018-Feb-17 11:00N 34°38' E 135°10'3 6.0
2018-Feb-17 10:30N 34°41' E 135°11'0 0.0
2018-Feb-17 10:00N 34°41' E 135°11'3 5.8
2018-Feb-17 09:30N 34°38' E 135°10'3 5.4
2018-Feb-17 09:01N 34°37' E 135°07'4 8.1
2018-Feb-17 08:30N 34°40' E 135°11'1 2.5
2018-Feb-17 08:00N 34°41' E 135°11'0 0.0
2018-Feb-17 07:30N 34°41' E 135°11'0 0.0
2018-Feb-17 07:00N 34°41' E 135°11'2 4.4
2018-Feb-17 06:31N 34°39' E 135°11'1 2.0
2018-Feb-17 06:01N 34°38' E 135°10'3 5.7
2018-Feb-17 05:30N 34°41' E 135°11'0 0.0
2018-Feb-17 04:58N 34°41' E 135°11'2 5.1
2018-Feb-17 04:30N 34°38' E 135°11'3 6.1
2018-Feb-17 04:00N 34°37' E 135°08'3 5.1
2018-Feb-17 03:30N 34°38' E 135°11'3 5.3
2018-Feb-17 03:00N 34°41' E 135°11'0 0.0
2018-Feb-17 02:30N 34°41' E 135°11'0 0.0
2018-Feb-17 02:00N 34°41' E 135°11'0 0.0
2018-Feb-17 01:30N 34°41' E 135°11'0 0.0
2018-Feb-17 01:00N 34°41' E 135°11'0 0.0
2018-Feb-17 00:30N 34°41' E 135°11'0 0.0
2018-Feb-17 00:00N 34°41' E 135°11'0 0.0
2018-Feb-16 23:30N 34°41' E 135°11'0 0.0
2018-Feb-16 23:00N 34°41' E 135°11'0 0.0
2018-Feb-16 22:30N 34°41' E 135°11'0 0.0
2018-Feb-16 22:00N 34°41' E 135°11'0 0.0
2018-Feb-16 21:30N 34°41' E 135°11'0 0.0
2018-Feb-16 21:00N 34°41' E 135°11'0 0.0
2018-Feb-16 20:30N 34°41' E 135°11'0 0.0
2018-Feb-16 20:00N 34°41' E 135°11'0 0.0
2018-Feb-16 19:30N 34°41' E 135°11'0 0.0
2018-Feb-16 19:00N 34°41' E 135°11'0 0.0
2018-Feb-16 18:30N 34°41' E 135°11'0 0.0
2018-Feb-16 18:00N 34°41' E 135°11'0 0.0
2018-Feb-16 17:30N 34°41' E 135°11'0 0.0
2018-Feb-16 17:00N 34°41' E 135°11'0 0.0
2018-Feb-16 16:30N 34°41' E 135°11'0 0.0
2018-Feb-16 15:57N 34°41' E 135°11'0 0.0
2018-Feb-16 15:30N 34°41' E 135°11'0 0.0
2018-Feb-16 15:00N 34°41' E 135°11'0 0.0
2018-Feb-16 14:30N 34°41' E 135°11'0 0.0
2018-Feb-16 14:00N 34°41' E 135°11'0 0.0
2018-Feb-16 13:30N 34°41' E 135°11'0 0.0
2018-Feb-16 13:00N 34°41' E 135°11'0 0.0
2018-Feb-16 12:30N 34°41' E 135°11'2 4.3
2018-Feb-16 12:00N 34°39' E 135°11'4 7.8
2018-Feb-16 11:30N 34°37' E 135°07'2 4.7
2018-Feb-16 11:01N 34°38' E 135°10'3 5.7
2018-Feb-16 10:28N 34°41' E 135°11'0 0.0
2018-Feb-16 09:58N 34°41' E 135°11'3 5.8
2018-Feb-16 09:30N 34°38' E 135°11'3 6.1
2018-Feb-16 09:00N 34°37' E 135°07'4 8.5
2018-Feb-16 08:30N 34°40' E 135°11'1 2.5
2018-Feb-16 07:58N 34°41' E 135°11'0 0.0
2018-Feb-16 07:28N 34°41' E 135°11'0 0.0
2018-Feb-16 06:58N 34°41' E 135°11'2 5.4
2018-Feb-16 06:31N 34°38' E 135°11'1 1.5
2018-Feb-16 06:00N 34°38' E 135°10'3 6.0
2018-Feb-16 05:31N 34°41' E 135°11'0 0.0
2018-Feb-16 04:50N 34°41' E 135°11'2 6.6
2018-Feb-16 04:31N 34°39' E 135°11'4 8.9
2018-Feb-16 04:00N 34°37' E 135°06'3 6.0
2018-Feb-16 03:30N 34°38' E 135°10'3 6.2
2018-Feb-16 03:00N 34°41' E 135°11'0 0.0
2018-Feb-16 02:30N 34°41' E 135°11'0 0.0
2018-Feb-16 02:00N 34°41' E 135°11'0 0.0
2018-Feb-16 01:30N 34°41' E 135°11'0 0.0
2018-Feb-16 00:57N 34°41' E 135°11'0 0.0
2018-Feb-16 00:30N 34°41' E 135°11'0 0.0
2018-Feb-16 00:00N 34°41' E 135°11'0 0.0
2018-Feb-15 23:30N 34°41' E 135°11'0 0.0
2018-Feb-15 23:00N 34°41' E 135°11'0 0.0
2018-Feb-15 22:30N 34°41' E 135°11'0 0.0
2018-Feb-15 22:00N 34°41' E 135°11'0 0.0
2018-Feb-15 21:30N 34°41' E 135°11'0 0.0
2018-Feb-15 21:00N 34°41' E 135°11'0 0.0
2018-Feb-15 20:30N 34°41' E 135°11'0 0.0
2018-Feb-15 20:00N 34°41' E 135°11'0 0.0
2018-Feb-15 19:30N 34°41' E 135°11'0 0.0
2018-Feb-15 19:00N 34°41' E 135°11'0 0.0
2018-Feb-15 18:30N 34°41' E 135°11'0 0.0
2018-Feb-15 18:00N 34°41' E 135°11'0 0.0
2018-Feb-15 17:30N 34°41' E 135°11'0 0.0
2018-Feb-15 17:00N 34°41' E 135°11'0 0.0
2018-Feb-15 16:30N 34°41' E 135°11'0 0.0
2018-Feb-15 16:00N 34°41' E 135°11'0 0.0
2018-Feb-15 15:30N 34°41' E 135°11'0 0.0
2018-Feb-15 15:00N 34°41' E 135°11'0 0.0
2018-Feb-15 14:30N 34°41' E 135°11'0 0.0
2018-Feb-15 14:00N 34°41' E 135°11'0 0.0
2018-Feb-15 13:30N 34°41' E 135°11'0 0.0
2018-Feb-15 13:00N 34°41' E 135°11'0 0.0
2018-Feb-15 12:30N 34°41' E 135°11'3 5.3
2018-Feb-15 12:00N 34°38' E 135°11'4 8.1
2018-Feb-15 11:30N 34°37' E 135°06'3 5.8
2018-Feb-15 11:00N 34°38' E 135°10'3 6.4
2018-Feb-15 10:30N 34°41' E 135°11'0 0.0
2018-Feb-15 10:00N 34°41' E 135°11'3 5.1
2018-Feb-15 09:30N 34°38' E 135°11'3 6.6
2018-Feb-15 09:00N 34°37' E 135°07'4 8.5
2018-Feb-15 08:30N 34°39' E 135°11'1 2.7
2018-Feb-15 08:00N 34°41' E 135°11'0 0.0
2018-Feb-15 07:30N 34°41' E 135°11'0 0.0
2018-Feb-15 07:00N 34°41' E 135°11'3 5.5
2018-Feb-15 06:30N 34°38' E 135°11'1 1.9
2018-Feb-15 06:00N 34°38' E 135°10'3 6.2
2018-Feb-15 05:30N 34°41' E 135°11'0 0.0
2018-Feb-15 04:59N 34°41' E 135°11'2 5.1
2018-Feb-15 04:30N 34°38' E 135°11'4 8.3
2018-Feb-15 04:00N 34°36' E 135°07'3 5.5
2018-Feb-15 03:30N 34°38' E 135°10'3 6.2
2018-Feb-15 03:00N 34°41' E 135°11'0 0.0
2018-Feb-15 02:29N 34°41' E 135°11'0 0.0
2018-Feb-15 01:59N 34°41' E 135°11'0 0.0
2018-Feb-15 01:29N 34°41' E 135°11'0 0.0
2018-Feb-15 00:59N 34°41' E 135°11'0 0.0
2018-Feb-15 00:29N 34°41' E 135°11'0 0.0
2018-Feb-14 23:59N 34°41' E 135°11'0 0.0
2018-Feb-14 23:29N 34°41' E 135°11'0 0.0
2018-Feb-14 22:59N 34°41' E 135°11'0 0.0
2018-Feb-14 22:29N 34°41' E 135°11'0 0.0
2018-Feb-14 21:59N 34°41' E 135°11'0 0.0
2018-Feb-14 21:29N 34°41' E 135°11'0 0.0
2018-Feb-14 20:59N 34°41' E 135°11'0 0.0
2018-Feb-14 20:29N 34°41' E 135°11'0 0.0
2018-Feb-14 19:59N 34°41' E 135°11'0 0.0
2018-Feb-14 19:29N 34°41' E 135°11'0 0.0
2018-Feb-14 18:59N 34°41' E 135°11'0 0.0
2018-Feb-14 18:29N 34°41' E 135°11'0 0.0
2018-Feb-14 17:59N 34°41' E 135°11'0 0.0
2018-Feb-14 17:29N 34°41' E 135°11'0 0.0
2018-Feb-14 16:59N 34°41' E 135°11'0 0.0
2018-Feb-14 16:29N 34°41' E 135°11'0 0.0
2018-Feb-14 15:59N 34°41' E 135°11'0 0.0
2018-Feb-14 15:28N 34°41' E 135°11'0 0.0
2018-Feb-14 14:59N 34°41' E 135°11'0 0.0
2018-Feb-14 14:28N 34°41' E 135°11'0 0.0
2018-Feb-14 13:58N 34°41' E 135°11'0 0.0
2018-Feb-14 13:29N 34°41' E 135°11'0 0.0
2018-Feb-14 12:58N 34°41' E 135°11'0 0.0
2018-Feb-14 12:29N 34°41' E 135°11'3 6.3
2018-Feb-14 12:00N 34°38' E 135°10'4 8.0
2018-Feb-14 11:30N 34°37' E 135°05'4 7.5
2018-Feb-14 11:00N 34°38' E 135°10'3 6.0
2018-Feb-14 10:29N 34°41' E 135°11'0 0.0
2018-Feb-14 10:00N 34°41' E 135°11'3 5.3
2018-Feb-14 09:31N 34°38' E 135°11'3 6.4
2018-Feb-14 09:01N 34°37' E 135°07'4 8.2
2018-Feb-14 08:30N 34°40' E 135°11'1 2.5
2018-Feb-14 08:00N 34°41' E 135°11'0 0.0
2018-Feb-14 07:30N 34°41' E 135°11'0 0.0
2018-Feb-14 07:00N 34°41' E 135°11'2 5.0
2018-Feb-14 06:30N 34°38' E 135°11'1 1.8
2018-Feb-14 06:00N 34°38' E 135°10'3 6.0
2018-Feb-14 05:30N 34°41' E 135°11'0 0.0
2018-Feb-14 04:58N 34°41' E 135°11'2 4.3
2018-Feb-14 04:30N 34°39' E 135°11'3 6.7
2018-Feb-14 04:00N 34°37' E 135°08'2 3.5
2018-Feb-14 03:30N 34°38' E 135°10'3 6.1
2018-Feb-14 03:00N 34°41' E 135°11'0 0.0
2018-Feb-14 02:30N 34°41' E 135°11'0 0.0
2018-Feb-14 02:00N 34°41' E 135°11'0 0.0
2018-Feb-14 01:30N 34°41' E 135°11'0 0.0
2018-Feb-14 01:00N 34°41' E 135°11'0 0.0
2018-Feb-14 00:30N 34°41' E 135°11'0 0.0
2018-Feb-14 00:00N 34°41' E 135°11'0 0.0
2018-Feb-13 23:30N 34°41' E 135°11'0 0.0
2018-Feb-13 23:00N 34°41' E 135°11'0 0.0
2018-Feb-13 22:30N 34°41' E 135°11'0 0.0
2018-Feb-13 22:00N 34°41' E 135°11'0 0.0
2018-Feb-13 21:30N 34°41' E 135°11'0 0.0
2018-Feb-13 21:00N 34°41' E 135°11'0 0.0
2018-Feb-13 20:30N 34°41' E 135°11'0 0.0
2018-Feb-13 20:00N 34°41' E 135°11'0 0.0
2018-Feb-13 19:30N 34°41' E 135°11'0 0.0
2018-Feb-13 19:00N 34°41' E 135°11'0 0.0
2018-Feb-13 18:30N 34°41' E 135°11'0 0.0
2018-Feb-13 18:00N 34°41' E 135°11'0 0.0
2018-Feb-13 17:30N 34°41' E 135°11'0 0.0
2018-Feb-13 17:00N 34°41' E 135°11'0 0.0
2018-Feb-13 16:30N 34°41' E 135°11'0 0.0
2018-Feb-13 16:00N 34°41' E 135°11'0 0.0
2018-Feb-13 15:30N 34°41' E 135°11'0 0.0
2018-Feb-13 15:00N 34°41' E 135°11'0 0.0
2018-Feb-13 14:30N 34°41' E 135°11'0 0.0
2018-Feb-13 14:00N 34°41' E 135°11'0 0.0
2018-Feb-13 13:27N 34°41' E 135°11'0 0.0
2018-Feb-13 13:00N 34°41' E 135°11'0 0.0
2018-Feb-13 12:30N 34°41' E 135°11'2 5.0
2018-Feb-13 12:00N 34°38' E 135°11'4 8.1
2018-Feb-13 11:31N 34°37' E 135°06'3 5.3
2018-Feb-13 11:00N 34°38' E 135°09'3 6.7
2018-Feb-13 10:30N 34°41' E 135°11'0 0.0
2018-Feb-13 09:59N 34°41' E 135°11'3 5.6
2018-Feb-13 09:31N 34°38' E 135°11'3 5.3
2018-Feb-13 09:00N 34°37' E 135°08'4 7.5
2018-Feb-13 08:31N 34°39' E 135°11'1 2.9
2018-Feb-13 08:01N 34°41' E 135°11'0 0.0
2018-Feb-13 07:30N 34°41' E 135°11'0 0.0
2018-Feb-13 07:00N 34°41' E 135°11'3 5.3
2018-Feb-13 06:31N 34°38' E 135°11'1 1.9
2018-Feb-13 06:01N 34°38' E 135°10'3 6.4
2018-Feb-13 05:31N 34°41' E 135°11'0 0.0
2018-Feb-13 04:59N 34°41' E 135°11'2 4.7
2018-Feb-13 04:31N 34°39' E 135°11'4 9.0
2018-Feb-13 04:01N 34°37' E 135°06'3 6.6
2018-Feb-13 03:31N 34°38' E 135°10'3 5.9
2018-Feb-13 03:01N 34°41' E 135°11'0 0.0
2018-Feb-13 02:30N 34°41' E 135°11'0 0.0
2018-Feb-13 02:00N 34°41' E 135°11'0 0.0
2018-Feb-13 01:27N 34°41' E 135°11'0 0.0
2018-Feb-13 01:00N 34°41' E 135°11'0 0.0
2018-Feb-13 00:30N 34°41' E 135°11'0 0.0
2018-Feb-13 00:00N 34°41' E 135°11'0 0.0
2018-Feb-12 23:30N 34°41' E 135°11'0 0.0
2018-Feb-12 23:00N 34°41' E 135°11'0 0.0
2018-Feb-12 22:30N 34°41' E 135°11'0 0.0
2018-Feb-12 22:00N 34°41' E 135°11'0 0.0
2018-Feb-12 21:30N 34°41' E 135°11'0 0.0
2018-Feb-12 21:00N 34°41' E 135°11'0 0.0
2018-Feb-12 20:27N 34°41' E 135°11'0 0.0
2018-Feb-12 20:00N 34°41' E 135°11'0 0.0
2018-Feb-12 19:30N 34°41' E 135°11'0 0.0
2018-Feb-12 19:00N 34°41' E 135°11'0 0.0
2018-Feb-12 18:30N 34°41' E 135°11'0 0.0
2018-Feb-12 18:00N 34°41' E 135°11'0 0.0
2018-Feb-12 17:30N 34°41' E 135°11'0 0.0
2018-Feb-12 17:00N 34°41' E 135°11'0 0.0
2018-Feb-12 16:30N 34°41' E 135°11'0 0.0
2018-Feb-12 16:00N 34°41' E 135°11'0 0.0
2018-Feb-12 15:30N 34°41' E 135°11'0 0.0
2018-Feb-12 15:00N 34°41' E 135°11'0 0.0
2018-Feb-12 14:30N 34°41' E 135°11'0 0.0
2018-Feb-12 14:00N 34°41' E 135°11'0 0.0
2018-Feb-12 13:30N 34°41' E 135°11'0 0.0
2018-Feb-12 13:00N 34°41' E 135°11'0 0.0
2018-Feb-12 12:30N 34°41' E 135°11'2 4.6
2018-Feb-12 12:01N 34°39' E 135°11'4 7.8
2018-Feb-12 11:31N 34°37' E 135°07'3 5.1
2018-Feb-12 11:00N 34°38' E 135°10'3 5.5
2018-Feb-12 10:29N 34°41' E 135°11'0 0.0
2018-Feb-12 09:59N 34°41' E 135°11'2 5.0
2018-Feb-12 09:30N 34°38' E 135°11'3 6.6
2018-Feb-12 09:00N 34°37' E 135°08'4 8.0
2018-Feb-12 08:30N 34°39' E 135°11'1 2.9
2018-Feb-12 08:00N 34°41' E 135°11'0 0.0
2018-Feb-12 07:30N 34°41' E 135°11'0 0.0
2018-Feb-12 07:00N 34°41' E 135°11'3 5.2
2018-Feb-12 06:30N 34°38' E 135°11'1 2.1
2018-Feb-12 06:00N 34°38' E 135°10'3 6.2
2018-Feb-12 05:30N 34°41' E 135°11'0 0.0
2018-Feb-12 05:00N 34°41' E 135°11'2 4.4
2018-Feb-12 04:30N 34°39' E 135°11'4 8.2
2018-Feb-12 04:01N 34°37' E 135°07'3 6.0
2018-Feb-12 03:30N 34°38' E 135°10'3 6.2
2018-Feb-12 03:00N 34°41' E 135°11'0 0.0
2018-Feb-12 02:29N 34°41' E 135°11'0 0.0
2018-Feb-12 01:59N 34°41' E 135°11'0 0.0
2018-Feb-12 01:29N 34°41' E 135°11'0 0.0
2018-Feb-12 00:59N 34°41' E 135°11'0 0.0
2018-Feb-12 00:29N 34°41' E 135°11'0 0.0
2018-Feb-11 23:59N 34°41' E 135°11'0 0.0
2018-Feb-11 23:29N 34°41' E 135°11'0 0.0
2018-Feb-11 22:59N 34°41' E 135°11'0 0.0
2018-Feb-11 22:29N 34°41' E 135°11'0 0.0
2018-Feb-11 21:59N 34°41' E 135°11'0 0.0
2018-Feb-11 21:29N 34°41' E 135°11'0 0.0
2018-Feb-11 20:59N 34°41' E 135°11'0 0.0
2018-Feb-11 20:29N 34°41' E 135°11'0 0.0
2018-Feb-11 19:59N 34°41' E 135°11'0 0.0
2018-Feb-11 19:29N 34°41' E 135°11'0 0.0
2018-Feb-11 18:59N 34°41' E 135°11'0 0.0
2018-Feb-11 18:29N 34°41' E 135°11'0 0.0
2018-Feb-11 17:59N 34°41' E 135°11'0 0.0
2018-Feb-11 17:29N 34°41' E 135°11'0 0.0
2018-Feb-11 16:59N 34°41' E 135°11'0 0.0
2018-Feb-11 16:29N 34°41' E 135°11'0 0.0
2018-Feb-11 15:59N 34°41' E 135°11'0 0.0
2018-Feb-11 15:29N 34°41' E 135°11'0 0.0
2018-Feb-11 14:59N 34°41' E 135°11'0 0.0
2018-Feb-11 14:29N 34°41' E 135°11'0 0.0
2018-Feb-11 13:59N 34°41' E 135°11'0 0.0
2018-Feb-11 13:29N 34°41' E 135°11'0 0.0
2018-Feb-11 12:59N 34°41' E 135°11'0 0.0
2018-Feb-11 12:26N 34°41' E 135°11'3 5.8
2018-Feb-11 12:00N 34°38' E 135°11'4 7.1
2018-Feb-11 11:31N 34°37' E 135°07'3 5.9
2018-Feb-11 11:00N 34°38' E 135°10'3 5.6
2018-Feb-11 10:30N 34°41' E 135°11'0 0.0
2018-Feb-11 09:58N 34°41' E 135°11'3 6.5
2018-Feb-11 09:30N 34°38' E 135°10'2 3.7
2018-Feb-11 09:00N 34°37' E 135°08'4 7.7
2018-Feb-11 08:30N 34°40' E 135°11'1 1.9
2018-Feb-11 08:00N 34°41' E 135°11'0 0.0
2018-Feb-11 07:31N 34°41' E 135°11'0 0.0
2018-Feb-11 07:00N 34°41' E 135°11'2 4.6
2018-Feb-11 06:31N 34°39' E 135°11'1 1.3
2018-Feb-11 06:00N 34°38' E 135°11'3 5.2
2018-Feb-11 05:30N 34°41' E 135°11'0 0.0
2018-Feb-11 04:58N 34°41' E 135°11'2 4.7
2018-Feb-11 04:30N 34°39' E 135°11'3 5.3
2018-Feb-11 04:00N 34°37' E 135°09'2 4.2
2018-Feb-11 03:31N 34°38' E 135°11'3 5.3
2018-Feb-11 03:01N 34°41' E 135°11'0 0.0
2018-Feb-11 02:30N 34°41' E 135°11'0 0.0
2018-Feb-11 02:00N 34°41' E 135°11'0 0.0
2018-Feb-11 01:30N 34°41' E 135°11'0 0.0
2018-Feb-11 01:00N 34°41' E 135°11'0 0.0
2018-Feb-11 00:30N 34°41' E 135°11'0 0.0
2018-Feb-11 00:00N 34°41' E 135°11'0 0.0
2018-Feb-10 23:30N 34°41' E 135°11'0 0.0
2018-Feb-10 23:00N 34°41' E 135°11'0 0.0
2018-Feb-10 22:30N 34°41' E 135°11'0 0.0
2018-Feb-10 22:00N 34°41' E 135°11'0 0.0
2018-Feb-10 21:30N 34°41' E 135°11'0 0.0
2018-Feb-10 21:00N 34°41' E 135°11'0 0.0
2018-Feb-10 20:30N 34°41' E 135°11'0 0.0
2018-Feb-10 20:00N 34°41' E 135°11'0 0.0
2018-Feb-10 19:30N 34°41' E 135°11'0 0.0
2018-Feb-10 19:00N 34°41' E 135°11'0 0.0
2018-Feb-10 18:30N 34°41' E 135°11'0 0.0
2018-Feb-10 18:00N 34°41' E 135°11'0 0.0
2018-Feb-10 17:30N 34°41' E 135°11'0 0.0
2018-Feb-10 17:00N 34°41' E 135°11'0 0.0
2018-Feb-10 16:30N 34°41' E 135°11'0 0.0
2018-Feb-10 16:00N 34°41' E 135°11'0 0.0
2018-Feb-10 15:30N 34°41' E 135°11'0 0.0
2018-Feb-10 15:00N 34°41' E 135°11'0 0.0
2018-Feb-10 14:30N 34°41' E 135°11'0 0.0
2018-Feb-10 14:00N 34°41' E 135°11'  
Track history (hours):
 
Tides and Currents Weather Stations Pressure Air Temp Water Temp Dewpoint Dewpoint Depression Visibility Wind Speed Wind Dir Waves Ship Positions

Concerto

Last reported at 2018-Feb-20 13:59 UTC. Time now 2018-Feb-20 14:01 UTC.
Position N 34°41' E 135°11'.

Length 74 m; draft 3 m.

Type: Passenger vessel. MMSI: 431000448.

Date/timePositionNaut miles runAvg speedWind from/ knotsBaromVisibWave heightAir tempDewpointWater temp
2018-Feb-20 13:59N 34°41' E 135°11'0 0.0
2018-Feb-20 13:29N 34°41' E 135°11'0 0.0
2018-Feb-20 12:59N 34°41' E 135°11'0 0.0
2018-Feb-20 12:29N 34°41' E 135°11'3 5.8
2018-Feb-20 12:00N 34°38' E 135°11'4 8.4
2018-Feb-20 11:31N 34°36' E 135°06'3 6.9
2018-Feb-20 11:00N 34°38' E 135°10'3 6.1
2018-Feb-20 10:30N 34°41' E 135°11'0 0.0
2018-Feb-20 10:00N 34°41' E 135°11'2 3.9
2018-Feb-20 09:30N 34°39' E 135°11'4 7.5
2018-Feb-20 09:01N 34°37' E 135°07'4 8.1
2018-Feb-20 08:30N 34°40' E 135°11'1 2.5
2018-Feb-20 07:59N 34°41' E 135°11'0 0.0
2018-Feb-20 07:29N 34°41' E 135°11'0 0.0
2018-Feb-20 06:59N 34°41' E 135°11'2 3.8
2018-Feb-20 06:30N 34°39' E 135°11'1 2.6
2018-Feb-20 06:00N 34°38' E 135°10'3 5.7
2018-Feb-20 05:30N 34°41' E 135°11'0 0.0
2018-Feb-20 04:58N 34°41' E 135°11'2 4.6
2018-Feb-20 04:30N 34°39' E 135°11'4 7.9
2018-Feb-20 04:00N 34°37' E 135°07'3 5.7
2018-Feb-20 03:30N 34°38' E 135°10'3 5.7
2018-Feb-20 03:00N 34°41' E 135°11'0 0.0
2018-Feb-20 02:30N 34°41' E 135°11'0 0.0
2018-Feb-20 02:00N 34°41' E 135°11'0 0.0
2018-Feb-20 01:30N 34°41' E 135°11'0 0.0
2018-Feb-20 01:00N 34°41' E 135°11'0 0.0
2018-Feb-20 00:30N 34°41' E 135°11'0 0.0
2018-Feb-20 00:00N 34°41' E 135°11'0 0.0
2018-Feb-19 23:30N 34°41' E 135°11'0 0.0
2018-Feb-19 23:00N 34°41' E 135°11'0 0.0
2018-Feb-19 22:30N 34°41' E 135°11'0 0.0
2018-Feb-19 22:00N 34°41' E 135°11'0 0.0
2018-Feb-19 21:24N 34°41' E 135°11'0 0.0
2018-Feb-19 21:00N 34°41' E 135°11'0 0.0
2018-Feb-19 20:29N 34°41' E 135°11'0 0.0
2018-Feb-19 20:00N 34°41' E 135°11'0 0.0
2018-Feb-19 19:30N 34°41' E 135°11'0 0.0
2018-Feb-19 19:00N 34°41' E 135°11'0 0.0
2018-Feb-19 18:30N 34°41' E 135°11'0 0.0
2018-Feb-19 18:00N 34°41' E 135°11'0 0.0
2018-Feb-19 17:30N 34°41' E 135°11'0 0.0
2018-Feb-19 17:00N 34°41' E 135°11'0 0.0
2018-Feb-19 16:30N 34°41' E 135°11'0 0.0
2018-Feb-19 16:00N 34°41' E 135°11'0 0.0
2018-Feb-19 15:30N 34°41' E 135°11'0 0.0
2018-Feb-19 14:59N 34°41' E 135°11'0 0.0
2018-Feb-19 14:30N 34°41' E 135°11'0 0.0
2018-Feb-19 14:00N 34°41' E 135°11'0 0.0
2018-Feb-19 13:30N 34°41' E 135°11'0 0.0
2018-Feb-19 13:00N 34°41' E 135°11'0 0.0
2018-Feb-19 12:30N 34°41' E 135°11'2 5.0
2018-Feb-19 12:01N 34°38' E 135°11'4 8.7
2018-Feb-19 11:30N 34°37' E 135°06'3 6.7
2018-Feb-19 11:00N 34°38' E 135°10'3 6.4
2018-Feb-19 10:29N 34°41' E 135°11'0 0.0
2018-Feb-19 09:59N 34°41' E 135°11'3 5.4
2018-Feb-19 09:30N 34°38' E 135°11'3 6.5
2018-Feb-19 09:00N 34°37' E 135°07'4 8.2
2018-Feb-19 08:31N 34°40' E 135°11'1 2.4
2018-Feb-19 07:58N 34°41' E 135°11'0 0.0
2018-Feb-19 07:28N 34°41' E 135°11'0 0.0
2018-Feb-19 06:58N 34°41' E 135°11'2 4.2
2018-Feb-19 06:30N 34°39' E 135°11'2 3.7
2018-Feb-19 06:00N 34°38' E 135°09'3 6.5
2018-Feb-19 05:30N 34°41' E 135°11'0 0.0
2018-Feb-19 04:58N 34°41' E 135°11'2 4.2
2018-Feb-19 04:31N 34°39' E 135°11'3 6.7
2018-Feb-19 04:01N 34°37' E 135°08'2 4.4
2018-Feb-19 03:31N 34°38' E 135°10'3 5.2
2018-Feb-19 03:00N 34°41' E 135°11'0 0.0
2018-Feb-19 02:29N 34°41' E 135°11'0 0.0
2018-Feb-19 01:59N 34°41' E 135°11'0 0.0
2018-Feb-19 01:29N 34°41' E 135°11'0 0.0
2018-Feb-19 00:59N 34°41' E 135°11'0 0.0
2018-Feb-19 00:29N 34°41' E 135°11'0 0.0
2018-Feb-18 23:59N 34°41' E 135°11'0 0.0
2018-Feb-18 23:26N 34°41' E 135°11'0 0.0
2018-Feb-18 22:59N 34°41' E 135°11'0 0.0
2018-Feb-18 22:29N 34°41' E 135°11'0 0.0
2018-Feb-18 21:59N 34°41' E 135°11'0 0.0
2018-Feb-18 21:29N 34°41' E 135°11'0 0.0
2018-Feb-18 20:59N 34°41' E 135°11'0 0.0
2018-Feb-18 20:29N 34°41' E 135°11'0 0.0
2018-Feb-18 19:59N 34°41' E 135°11'0 0.0
2018-Feb-18 19:29N 34°41' E 135°11'0 0.0
2018-Feb-18 18:59N 34°41' E 135°11'0 0.0
2018-Feb-18 18:29N 34°41' E 135°11'0 0.0
2018-Feb-18 17:59N 34°41' E 135°11'0 0.0
2018-Feb-18 17:29N 34°41' E 135°11'0 0.0
2018-Feb-18 16:59N 34°41' E 135°11'0 0.0
2018-Feb-18 16:29N 34°41' E 135°11'0 0.0
2018-Feb-18 15:59N 34°41' E 135°11'0 0.0
2018-Feb-18 15:29N 34°41' E 135°11'0 0.0
2018-Feb-18 14:59N 34°41' E 135°11'0 0.0
2018-Feb-18 14:29N 34°41' E 135°11'0 0.0
2018-Feb-18 13:59N 34°41' E 135°11'0 0.0
2018-Feb-18 13:29N 34°41' E 135°11'0 0.0
2018-Feb-18 12:59N 34°41' E 135°11'0 0.0
2018-Feb-18 12:26N 34°41' E 135°11'2 5.4
2018-Feb-18 12:00N 34°38' E 135°11'4 8.2
2018-Feb-18 11:31N 34°37' E 135°06'3 5.9
2018-Feb-18 11:00N 34°38' E 135°10'3 6.5
2018-Feb-18 10:30N 34°41' E 135°11'0 0.0
2018-Feb-18 10:00N 34°41' E 135°11'3 5.1
2018-Feb-18 09:30N 34°38' E 135°11'3 5.9
2018-Feb-18 09:00N 34°37' E 135°08'4 7.8
2018-Feb-18 08:31N 34°39' E 135°11'1 2.4
2018-Feb-18 07:58N 34°41' E 135°11'0 0.0
2018-Feb-18 07:28N 34°41' E 135°11'0 0.0
2018-Feb-18 06:58N 34°41' E 135°11'1 2.9
2018-Feb-18 06:30N 34°40' E 135°12'2 4.6
2018-Feb-18 06:01N 34°38' E 135°10'3 6.1
2018-Feb-18 05:30N 34°41' E 135°11'0 0.0
2018-Feb-18 04:59N 34°41' E 135°11'2 4.5
2018-Feb-18 04:31N 34°39' E 135°11'4 8.5
2018-Feb-18 04:00N 34°37' E 135°07'3 5.2
2018-Feb-18 03:30N 34°38' E 135°09'3 6.3
2018-Feb-18 03:00N 34°41' E 135°11'0 0.0
2018-Feb-18 02:28N 34°41' E 135°11'0 0.0
2018-Feb-18 01:58N 34°41' E 135°11'0 0.0
2018-Feb-18 01:28N 34°41' E 135°11'0 0.0
2018-Feb-18 00:58N 34°41' E 135°11'0 0.0
2018-Feb-18 00:28N 34°41' E 135°11'0 0.0
2018-Feb-17 23:58N 34°41' E 135°11'0 0.0
2018-Feb-17 23:28N 34°41' E 135°11'0 0.0
2018-Feb-17 22:58N 34°41' E 135°11'0 0.0
2018-Feb-17 22:28N 34°41' E 135°11'0 0.0
2018-Feb-17 21:58N 34°41' E 135°11'0 0.0
2018-Feb-17 21:28N 34°41' E 135°11'0 0.0
2018-Feb-17 20:58N 34°41' E 135°11'0 0.0
2018-Feb-17 20:28N 34°41' E 135°11'0 0.0
2018-Feb-17 19:58N 34°41' E 135°11'0 0.0
2018-Feb-17 19:28N 34°41' E 135°11'0 0.0
2018-Feb-17 18:58N 34°41' E 135°11'0 0.0
2018-Feb-17 18:28N 34°41' E 135°11'0 0.0
2018-Feb-17 17:58N 34°41' E 135°11'0 0.0
2018-Feb-17 17:28N 34°41' E 135°11'0 0.0
2018-Feb-17 16:58N 34°41' E 135°11'0 0.0
2018-Feb-17 16:28N 34°41' E 135°11'0 0.0
2018-Feb-17 15:58N 34°41' E 135°11'0 0.0
2018-Feb-17 15:28N 34°41' E 135°11'0 0.0
2018-Feb-17 14:58N 34°41' E 135°11'0 0.0
2018-Feb-17 14:28N 34°41' E 135°11'0 0.0
2018-Feb-17 13:58N 34°41' E 135°11'0 0.0
2018-Feb-17 13:28N 34°41' E 135°11'0 0.0
2018-Feb-17 12:58N 34°41' E 135°11'0 0.0
2018-Feb-17 12:28N 34°41' E 135°11'2 4.8
2018-Feb-17 12:00N 34°39' E 135°11'4 8.5
2018-Feb-17 11:30N 34°37' E 135°06'3 6.9
2018-Feb-17 11:00N 34°38' E 135°10'3 6.0
2018-Feb-17 10:30N 34°41' E 135°11'0 0.0
2018-Feb-17 10:00N 34°41' E 135°11'3 5.8
2018-Feb-17 09:30N 34°38' E 135°10'3 5.4
2018-Feb-17 09:01N 34°37' E 135°07'4 8.1
2018-Feb-17 08:30N 34°40' E 135°11'1 2.5
2018-Feb-17 08:00N 34°41' E 135°11'0 0.0
2018-Feb-17 07:30N 34°41' E 135°11'0 0.0
2018-Feb-17 07:00N 34°41' E 135°11'2 4.4
2018-Feb-17 06:31N 34°39' E 135°11'1 2.0
2018-Feb-17 06:01N 34°38' E 135°10'3 5.7
2018-Feb-17 05:30N 34°41' E 135°11'0 0.0
2018-Feb-17 04:58N 34°41' E 135°11'2 5.1
2018-Feb-17 04:30N 34°38' E 135°11'3 6.1
2018-Feb-17 04:00N 34°37' E 135°08'3 5.1
2018-Feb-17 03:30N 34°38' E 135°11'3 5.3
2018-Feb-17 03:00N 34°41' E 135°11'0 0.0
2018-Feb-17 02:30N 34°41' E 135°11'0 0.0
2018-Feb-17 02:00N 34°41' E 135°11'0 0.0
2018-Feb-17 01:30N 34°41' E 135°11'0 0.0
2018-Feb-17 01:00N 34°41' E 135°11'0 0.0
2018-Feb-17 00:30N 34°41' E 135°11'0 0.0
2018-Feb-17 00:00N 34°41' E 135°11'0 0.0
2018-Feb-16 23:30N 34°41' E 135°11'0 0.0
2018-Feb-16 23:00N 34°41' E 135°11'0 0.0
2018-Feb-16 22:30N 34°41' E 135°11'0 0.0
2018-Feb-16 22:00N 34°41' E 135°11'0 0.0
2018-Feb-16 21:30N 34°41' E 135°11'0 0.0
2018-Feb-16 21:00N 34°41' E 135°11'0 0.0
2018-Feb-16 20:30N 34°41' E 135°11'0 0.0
2018-Feb-16 20:00N 34°41' E 135°11'0 0.0
2018-Feb-16 19:30N 34°41' E 135°11'0 0.0
2018-Feb-16 19:00N 34°41' E 135°11'0 0.0
2018-Feb-16 18:30N 34°41' E 135°11'0 0.0
2018-Feb-16 18:00N 34°41' E 135°11'0 0.0
2018-Feb-16 17:30N 34°41' E 135°11'0 0.0
2018-Feb-16 17:00N 34°41' E 135°11'0 0.0
2018-Feb-16 16:30N 34°41' E 135°11'0 0.0
2018-Feb-16 15:57N 34°41' E 135°11'0 0.0
2018-Feb-16 15:30N 34°41' E 135°11'0 0.0
2018-Feb-16 15:00N 34°41' E 135°11'0 0.0
2018-Feb-16 14:30N 34°41' E 135°11'0 0.0
2018-Feb-16 14:00N 34°41' E 135°11'0 0.0
2018-Feb-16 13:30N 34°41' E 135°11'0 0.0
2018-Feb-16 13:00N 34°41' E 135°11'0 0.0
2018-Feb-16 12:30N 34°41' E 135°11'2 4.3
2018-Feb-16 12:00N 34°39' E 135°11'4 7.8
2018-Feb-16 11:30N 34°37' E 135°07'2 4.7
2018-Feb-16 11:01N 34°38' E 135°10'3 5.7
2018-Feb-16 10:28N 34°41' E 135°11'0 0.0
2018-Feb-16 09:58N 34°41' E 135°11'3 5.8
2018-Feb-16 09:30N 34°38' E 135°11'3 6.1
2018-Feb-16 09:00N 34°37' E 135°07'4 8.5
2018-Feb-16 08:30N 34°40' E 135°11'1 2.5
2018-Feb-16 07:58N 34°41' E 135°11'0 0.0
2018-Feb-16 07:28N 34°41' E 135°11'0 0.0
2018-Feb-16 06:58N 34°41' E 135°11'2 5.4
2018-Feb-16 06:31N 34°38' E 135°11'1 1.5
2018-Feb-16 06:00N 34°38' E 135°10'3 6.0
2018-Feb-16 05:31N 34°41' E 135°11'0 0.0
2018-Feb-16 04:50N 34°41' E 135°11'2 6.6
2018-Feb-16 04:31N 34°39' E 135°11'4 8.9
2018-Feb-16 04:00N 34°37' E 135°06'3 6.0
2018-Feb-16 03:30N 34°38' E 135°10'3 6.2
2018-Feb-16 03:00N 34°41' E 135°11'0 0.0
2018-Feb-16 02:30N 34°41' E 135°11'0 0.0
2018-Feb-16 02:00N 34°41' E 135°11'0 0.0
2018-Feb-16 01:30N 34°41' E 135°11'0 0.0
2018-Feb-16 00:57N 34°41' E 135°11'0 0.0
2018-Feb-16 00:30N 34°41' E 135°11'0 0.0
2018-Feb-16 00:00N 34°41' E 135°11'0 0.0
2018-Feb-15 23:30N 34°41' E 135°11'0 0.0
2018-Feb-15 23:00N 34°41' E 135°11'0 0.0
2018-Feb-15 22:30N 34°41' E 135°11'0 0.0
2018-Feb-15 22:00N 34°41' E 135°11'0 0.0
2018-Feb-15 21:30N 34°41' E 135°11'0 0.0
2018-Feb-15 21:00N 34°41' E 135°11'0 0.0
2018-Feb-15 20:30N 34°41' E 135°11'0 0.0
2018-Feb-15 20:00N 34°41' E 135°11'0 0.0
2018-Feb-15 19:30N 34°41' E 135°11'0 0.0
2018-Feb-15 19:00N 34°41' E 135°11'0 0.0
2018-Feb-15 18:30N 34°41' E 135°11'0 0.0
2018-Feb-15 18:00N 34°41' E 135°11'0 0.0
2018-Feb-15 17:30N 34°41' E 135°11'0 0.0
2018-Feb-15 17:00N 34°41' E 135°11'0 0.0
2018-Feb-15 16:30N 34°41' E 135°11'0 0.0
2018-Feb-15 16:00N 34°41' E 135°11'0 0.0
2018-Feb-15 15:30N 34°41' E 135°11'0 0.0
2018-Feb-15 15:00N 34°41' E 135°11'0 0.0
2018-Feb-15 14:30N 34°41' E 135°11'0 0.0
2018-Feb-15 14:00N 34°41' E 135°11'0 0.0
2018-Feb-15 13:30N 34°41' E 135°11'0 0.0
2018-Feb-15 13:00N 34°41' E 135°11'0 0.0
2018-Feb-15 12:30N 34°41' E 135°11'3 5.3
2018-Feb-15 12:00N 34°38' E 135°11'4 8.1
2018-Feb-15 11:30N 34°37' E 135°06'3 5.8
2018-Feb-15 11:00N 34°38' E 135°10'3 6.4
2018-Feb-15 10:30N 34°41' E 135°11'0 0.0
2018-Feb-15 10:00N 34°41' E 135°11'3 5.1
2018-Feb-15 09:30N 34°38' E 135°11'3 6.6
2018-Feb-15 09:00N 34°37' E 135°07'4 8.5
2018-Feb-15 08:30N 34°39' E 135°11'1 2.7
2018-Feb-15 08:00N 34°41' E 135°11'0 0.0
2018-Feb-15 07:30N 34°41' E 135°11'0 0.0
2018-Feb-15 07:00N 34°41' E 135°11'3 5.5
2018-Feb-15 06:30N 34°38' E 135°11'1 1.9
2018-Feb-15 06:00N 34°38' E 135°10'3 6.2
2018-Feb-15 05:30N 34°41' E 135°11'0 0.0
2018-Feb-15 04:59N 34°41' E 135°11'2 5.1
2018-Feb-15 04:30N 34°38' E 135°11'4 8.3
2018-Feb-15 04:00N 34°36' E 135°07'3 5.5
2018-Feb-15 03:30N 34°38' E 135°10'3 6.2
2018-Feb-15 03:00N 34°41' E 135°11'0 0.0
2018-Feb-15 02:29N 34°41' E 135°11'0 0.0
2018-Feb-15 01:59N 34°41' E 135°11'0 0.0
2018-Feb-15 01:29N 34°41' E 135°11'0 0.0
2018-Feb-15 00:59N 34°41' E 135°11'0 0.0
2018-Feb-15 00:29N 34°41' E 135°11'0 0.0
2018-Feb-14 23:59N 34°41' E 135°11'0 0.0
2018-Feb-14 23:29N 34°41' E 135°11'0 0.0
2018-Feb-14 22:59N 34°41' E 135°11'0 0.0
2018-Feb-14 22:29N 34°41' E 135°11'0 0.0
2018-Feb-14 21:59N 34°41' E 135°11'0 0.0
2018-Feb-14 21:29N 34°41' E 135°11'0 0.0
2018-Feb-14 20:59N 34°41' E 135°11'0 0.0
2018-Feb-14 20:29N 34°41' E 135°11'0 0.0
2018-Feb-14 19:59N 34°41' E 135°11'0 0.0
2018-Feb-14 19:29N 34°41' E 135°11'0 0.0
2018-Feb-14 18:59N 34°41' E 135°11'0 0.0
2018-Feb-14 18:29N 34°41' E 135°11'0 0.0
2018-Feb-14 17:59N 34°41' E 135°11'0 0.0
2018-Feb-14 17:29N 34°41' E 135°11'0 0.0
2018-Feb-14 16:59N 34°41' E 135°11'0 0.0
2018-Feb-14 16:29N 34°41' E 135°11'0 0.0
2018-Feb-14 15:59N 34°41' E 135°11'0 0.0
2018-Feb-14 15:28N 34°41' E 135°11'0 0.0
2018-Feb-14 14:59N 34°41' E 135°11'0 0.0
2018-Feb-14 14:28N 34°41' E 135°11'0 0.0
2018-Feb-14 13:58N 34°41' E 135°11'0 0.0
2018-Feb-14 13:29N 34°41' E 135°11'0 0.0
2018-Feb-14 12:58N 34°41' E 135°11'0 0.0
2018-Feb-14 12:29N 34°41' E 135°11'3 6.3
2018-Feb-14 12:00N 34°38' E 135°10'4 8.0
2018-Feb-14 11:30N 34°37' E 135°05'4 7.5
2018-Feb-14 11:00N 34°38' E 135°10'3 6.0
2018-Feb-14 10:29N 34°41' E 135°11'0 0.0
2018-Feb-14 10:00N 34°41' E 135°11'3 5.3
2018-Feb-14 09:31N 34°38' E 135°11'3 6.4
2018-Feb-14 09:01N 34°37' E 135°07'4 8.2
2018-Feb-14 08:30N 34°40' E 135°11'1 2.5
2018-Feb-14 08:00N 34°41' E 135°11'0 0.0
2018-Feb-14 07:30N 34°41' E 135°11'0 0.0
2018-Feb-14 07:00N 34°41' E 135°11'2 5.0
2018-Feb-14 06:30N 34°38' E 135°11'1 1.8
2018-Feb-14 06:00N 34°38' E 135°10'3 6.0
2018-Feb-14 05:30N 34°41' E 135°11'0 0.0
2018-Feb-14 04:58N 34°41' E 135°11'2 4.3
2018-Feb-14 04:30N 34°39' E 135°11'3 6.7
2018-Feb-14 04:00N 34°37' E 135°08'2 3.5
2018-Feb-14 03:30N 34°38' E 135°10'3 6.1
2018-Feb-14 03:00N 34°41' E 135°11'0 0.0
2018-Feb-14 02:30N 34°41' E 135°11'0 0.0
2018-Feb-14 02:00N 34°41' E 135°11'0 0.0
2018-Feb-14 01:30N 34°41' E 135°11'0 0.0
2018-Feb-14 01:00N 34°41' E 135°11'0 0.0
2018-Feb-14 00:30N 34°41' E 135°11'0 0.0
2018-Feb-14 00:00N 34°41' E 135°11'0 0.0
2018-Feb-13 23:30N 34°41' E 135°11'0 0.0
2018-Feb-13 23:00N 34°41' E 135°11'0 0.0
2018-Feb-13 22:30N 34°41' E 135°11'0 0.0
2018-Feb-13 22:00N 34°41' E 135°11'0 0.0
2018-Feb-13 21:30N 34°41' E 135°11'0 0.0
2018-Feb-13 21:00N 34°41' E 135°11'0 0.0
2018-Feb-13 20:30N 34°41' E 135°11'0 0.0
2018-Feb-13 20:00N 34°41' E 135°11'0 0.0
2018-Feb-13 19:30N 34°41' E 135°11'0 0.0
2018-Feb-13 19:00N 34°41' E 135°11'0 0.0
2018-Feb-13 18:30N 34°41' E 135°11'0 0.0
2018-Feb-13 18:00N 34°41' E 135°11'0 0.0
2018-Feb-13 17:30N 34°41' E 135°11'0 0.0
2018-Feb-13 17:00N 34°41' E 135°11'0 0.0
2018-Feb-13 16:30N 34°41' E 135°11'0 0.0
2018-Feb-13 16:00N 34°41' E 135°11'0 0.0
2018-Feb-13 15:30N 34°41' E 135°11'0 0.0
2018-Feb-13 15:00N 34°41' E 135°11'0 0.0
2018-Feb-13 14:30N 34°41' E 135°11'0 0.0
2018-Feb-13 14:00N 34°41' E 135°11'0 0.0
2018-Feb-13 13:27N 34°41' E 135°11'0 0.0
2018-Feb-13 13:00N 34°41' E 135°11'0 0.0
2018-Feb-13 12:30N 34°41' E 135°11'2 5.0
2018-Feb-13 12:00N 34°38' E 135°11'4 8.1
2018-Feb-13 11:31N 34°37' E 135°06'3 5.3
2018-Feb-13 11:00N 34°38' E 135°09'3 6.7
2018-Feb-13 10:30N 34°41' E 135°11'0 0.0
2018-Feb-13 09:59N 34°41' E 135°11'3 5.6
2018-Feb-13 09:31N 34°38' E 135°11'3 5.3
2018-Feb-13 09:00N 34°37' E 135°08'4 7.5
2018-Feb-13 08:31N 34°39' E 135°11'1 2.9
2018-Feb-13 08:01N 34°41' E 135°11'0 0.0
2018-Feb-13 07:30N 34°41' E 135°11'0 0.0
2018-Feb-13 07:00N 34°41' E 135°11'3 5.3
2018-Feb-13 06:31N 34°38' E 135°11'1 1.9
2018-Feb-13 06:01N 34°38' E 135°10'3 6.4
2018-Feb-13 05:31N 34°41' E 135°11'0 0.0
2018-Feb-13 04:59N 34°41' E 135°11'2 4.7
2018-Feb-13 04:31N 34°39' E 135°11'4 9.0
2018-Feb-13 04:01N 34°37' E 135°06'3 6.6
2018-Feb-13 03:31N 34°38' E 135°10'3 5.9
2018-Feb-13 03:01N 34°41' E 135°11'0 0.0
2018-Feb-13 02:30N 34°41' E 135°11'0 0.0
2018-Feb-13 02:00N 34°41' E 135°11'0 0.0
2018-Feb-13 01:27N 34°41' E 135°11'0 0.0
2018-Feb-13 01:00N 34°41' E 135°11'0 0.0
2018-Feb-13 00:30N 34°41' E 135°11'0 0.0
2018-Feb-13 00:00N 34°41' E 135°11'0 0.0
2018-Feb-12 23:30N 34°41' E 135°11'0 0.0
2018-Feb-12 23:00N 34°41' E 135°11'0 0.0
2018-Feb-12 22:30N 34°41' E 135°11'0 0.0
2018-Feb-12 22:00N 34°41' E 135°11'0 0.0
2018-Feb-12 21:30N 34°41' E 135°11'0 0.0
2018-Feb-12 21:00N 34°41' E 135°11'0 0.0
2018-Feb-12 20:27N 34°41' E 135°11'0 0.0
2018-Feb-12 20:00N 34°41' E 135°11'0 0.0
2018-Feb-12 19:30N 34°41' E 135°11'0 0.0
2018-Feb-12 19:00N 34°41' E 135°11'0 0.0
2018-Feb-12 18:30N 34°41' E 135°11'0 0.0
2018-Feb-12 18:00N 34°41' E 135°11'0 0.0
2018-Feb-12 17:30N 34°41' E 135°11'0 0.0
2018-Feb-12 17:00N 34°41' E 135°11'0 0.0
2018-Feb-12 16:30N 34°41' E 135°11'0 0.0
2018-Feb-12 16:00N 34°41' E 135°11'0 0.0
2018-Feb-12 15:30N 34°41' E 135°11'0 0.0
2018-Feb-12 15:00N 34°41' E 135°11'0 0.0
2018-Feb-12 14:30N 34°41' E 135°11'0 0.0
2018-Feb-12 14:00N 34°41' E 135°11'0 0.0
2018-Feb-12 13:30N 34°41' E 135°11'0 0.0
2018-Feb-12 13:00N 34°41' E 135°11'0 0.0
2018-Feb-12 12:30N 34°41' E 135°11'2 4.6
2018-Feb-12 12:01N 34°39' E 135°11'4 7.8
2018-Feb-12 11:31N 34°37' E 135°07'3 5.1
2018-Feb-12 11:00N 34°38' E 135°10'3 5.5
2018-Feb-12 10:29N 34°41' E 135°11'0 0.0
2018-Feb-12 09:59N 34°41' E 135°11'2 5.0
2018-Feb-12 09:30N 34°38' E 135°11'3 6.6
2018-Feb-12 09:00N 34°37' E 135°08'4 8.0
2018-Feb-12 08:30N 34°39' E 135°11'1 2.9
2018-Feb-12 08:00N 34°41' E 135°11'0 0.0
2018-Feb-12 07:30N 34°41' E 135°11'0 0.0
2018-Feb-12 07:00N 34°41' E 135°11'3 5.2
2018-Feb-12 06:30N 34°38' E 135°11'1 2.1
2018-Feb-12 06:00N 34°38' E 135°10'3 6.2
2018-Feb-12 05:30N 34°41' E 135°11'0 0.0
2018-Feb-12 05:00N 34°41' E 135°11'2 4.4
2018-Feb-12 04:30N 34°39' E 135°11'4 8.2
2018-Feb-12 04:01N 34°37' E 135°07'3 6.0
2018-Feb-12 03:30N 34°38' E 135°10'3 6.2
2018-Feb-12 03:00N 34°41' E 135°11'0 0.0
2018-Feb-12 02:29N 34°41' E 135°11'0 0.0
2018-Feb-12 01:59N 34°41' E 135°11'0 0.0
2018-Feb-12 01:29N 34°41' E 135°11'0 0.0
2018-Feb-12 00:59N 34°41' E 135°11'0 0.0
2018-Feb-12 00:29N 34°41' E 135°11'0 0.0
2018-Feb-11 23:59N 34°41' E 135°11'0 0.0
2018-Feb-11 23:29N 34°41' E 135°11'0 0.0
2018-Feb-11 22:59N 34°41' E 135°11'0 0.0
2018-Feb-11 22:29N 34°41' E 135°11'0 0.0
2018-Feb-11 21:59N 34°41' E 135°11'0 0.0
2018-Feb-11 21:29N 34°41' E 135°11'0 0.0
2018-Feb-11 20:59N 34°41' E 135°11'0 0.0
2018-Feb-11 20:29N 34°41' E 135°11'0 0.0
2018-Feb-11 19:59N 34°41' E 135°11'0 0.0
2018-Feb-11 19:29N 34°41' E 135°11'0 0.0
2018-Feb-11 18:59N 34°41' E 135°11'0 0.0
2018-Feb-11 18:29N 34°41' E 135°11'0 0.0
2018-Feb-11 17:59N 34°41' E 135°11'0 0.0
2018-Feb-11 17:29N 34°41' E 135°11'0 0.0
2018-Feb-11 16:59N 34°41' E 135°11'0 0.0
2018-Feb-11 16:29N 34°41' E 135°11'0 0.0
2018-Feb-11 15:59N 34°41' E 135°11'0 0.0
2018-Feb-11 15:29N 34°41' E 135°11'0 0.0
2018-Feb-11 14:59N 34°41' E 135°11'0 0.0
2018-Feb-11 14:29N 34°41' E 135°11'0 0.0
2018-Feb-11 13:59N 34°41' E 135°11'0 0.0
2018-Feb-11 13:29N 34°41' E 135°11'0 0.0
2018-Feb-11 12:59N 34°41' E 135°11'0 0.0
2018-Feb-11 12:26N 34°41' E 135°11'3 5.8
2018-Feb-11 12:00N 34°38' E 135°11'4 7.1
2018-Feb-11 11:31N 34°37' E 135°07'3 5.9
2018-Feb-11 11:00N 34°38' E 135°10'3 5.6
2018-Feb-11 10:30N 34°41' E 135°11'0 0.0
2018-Feb-11 09:58N 34°41' E 135°11'3 6.5
2018-Feb-11 09:30N 34°38' E 135°10'2 3.7
2018-Feb-11 09:00N 34°37' E 135°08'4 7.7
2018-Feb-11 08:30N 34°40' E 135°11'1 1.9
2018-Feb-11 08:00N 34°41' E 135°11'0 0.0
2018-Feb-11 07:31N 34°41' E 135°11'0 0.0
2018-Feb-11 07:00N 34°41' E 135°11'2 4.6
2018-Feb-11 06:31N 34°39' E 135°11'1 1.3
2018-Feb-11 06:00N 34°38' E 135°11'3 5.2
2018-Feb-11 05:30N 34°41' E 135°11'0 0.0
2018-Feb-11 04:58N 34°41' E 135°11'2 4.7
2018-Feb-11 04:30N 34°39' E 135°11'3 5.3
2018-Feb-11 04:00N 34°37' E 135°09'2 4.2
2018-Feb-11 03:31N 34°38' E 135°11'3 5.3
2018-Feb-11 03:01N 34°41' E 135°11'0 0.0
2018-Feb-11 02:30N 34°41' E 135°11'0 0.0
2018-Feb-11 02:00N 34°41' E 135°11'0 0.0
2018-Feb-11 01:30N 34°41' E 135°11'0 0.0
2018-Feb-11 01:00N 34°41' E 135°11'0 0.0
2018-Feb-11 00:30N 34°41' E 135°11'0 0.0
2018-Feb-11 00:00N 34°41' E 135°11'0 0.0
2018-Feb-10 23:30N 34°41' E 135°11'0 0.0
2018-Feb-10 23:00N 34°41' E 135°11'0 0.0
2018-Feb-10 22:30N 34°41' E 135°11'0 0.0
2018-Feb-10 22:00N 34°41' E 135°11'0 0.0
2018-Feb-10 21:30N 34°41' E 135°11'0 0.0
2018-Feb-10 21:00N 34°41' E 135°11'0 0.0
2018-Feb-10 20:30N 34°41' E 135°11'0 0.0
2018-Feb-10 20:00N 34°41' E 135°11'0 0.0
2018-Feb-10 19:30N 34°41' E 135°11'0 0.0
2018-Feb-10 19:00N 34°41' E 135°11'0 0.0
2018-Feb-10 18:30N 34°41' E 135°11'0 0.0
2018-Feb-10 18:00N 34°41' E 135°11'0 0.0
2018-Feb-10 17:30N 34°41' E 135°11'0 0.0
2018-Feb-10 17:00N 34°41' E 135°11'0 0.0
2018-Feb-10 16:30N 34°41' E 135°11'0 0.0
2018-Feb-10 16:00N 34°41' E 135°11'0 0.0
2018-Feb-10 15:30N 34°41' E 135°11'0 0.0
2018-Feb-10 15:00N 34°41' E 135°11'0 0.0
2018-Feb-10 14:30N 34°41' E 135°11'0 0.0
2018-Feb-10 14:00N 34°41' E 135°11'  

Dump ship's entire track history